Time;durP1;ratioP1;P1;durP2;ratioP2;P2;SDS_P1;SDS_P2;PMS_P1;PMS_P2;Temp;Humidity;BMP_temperature;BMP_pressure;BME280_temperature;BME280_humidity;BME280_pressure;Samples;Min_cycle;Max_cycle;Signal;HPM_P1;HPM_P2
2022/06/29 05:58:47;;;;;;;;;;;;;;;;;;;;;
2022/06/29 07:39:30;;;;;;;;;;;;;;;;;;;;;
2022/06/29 08:13:02;;;;;;;;;;;;;;;;;;;;;
2022/06/29 12:48:46;;;;;;;;;;;;;;;;;;;;;
2022/06/29 17:06:53;;;;;;;1.48;0.95;;;26.60;67.30;;;;;;6213394;22;20035;-86
2022/06/29 17:09:47;;;;;;;1.65;1.30;;;26.60;67.40;;;;;;6216028;23;20008;-88
2022/06/29 17:12:29;;;;;;;2.70;1.40;;;26.50;67.10;;;;;;6213556;23;20066;-86
2022/06/29 17:15:11;;;;;;;;;;;;;;;;;;;;;
2022/06/29 17:17:41;;;;;;;1.25;1.15;;;26.60;67.50;;;;;;6216117;23;20363;-86
2022/06/29 17:20:44;;;;;;;3.10;1.02;;;26.60;67.60;;;;;;6214173;23;20001;-86
2022/06/29 17:23:21;;;;;;;3.47;1.20;;;26.50;67.70;;;;;;6214934;23;20087;-87
2022/06/29 17:26:02;;;;;;;;;;;;;;;;;;;;;
2022/06/29 17:28:39;;;;;;;1.98;1.00;;;26.50;67.50;;;;;;6215873;23;20494;-87
2022/06/29 17:31:34;;;;;;;1.67;1.13;;;26.50;67.10;;;;;;6214380;23;20009;-87
2022/06/29 17:34:33;;;;;;;2.33;1.23;;;26.50;66.90;;;;;;6197329;23;20001;-87
2022/06/29 17:37:10;;;;;;;1.33;1.05;;;26.50;67.20;;;;;;6214072;23;19997;-86
2022/06/29 17:39:59;;;;;;;;;;;;;;;;;;;;;
2022/06/29 17:43:01;;;;;;;1.25;1.05;;;26.50;67.30;;;;;;6216042;23;20080;-87
2022/06/29 17:45:35;;;;;;;1.35;1.10;;;26.40;67.70;;;;;;6210005;23;20059;-87
2022/06/29 17:48:17;;;;;;;;;;;;;;;;;;;;;
2022/06/29 17:51:18;;;;;;;;;;;;;;;;;;;;;
2022/06/29 17:53:54;;;;;;;1.23;1.00;;;26.20;68.10;;;;;;6216558;23;20064;-87
2022/06/29 17:56:22;;;;;;;1.35;1.00;;;26.20;68.40;;;;;;6215524;23;20489;-87
2022/06/29 17:59:09;;;;;;;1.10;1.00;;;26.20;68.70;;;;;;6214570;23;20047;-86
2022/06/29 18:02:04;;;;;;;2.13;1.08;;;26.10;69.20;;;;;;6192277;23;20039;-88
2022/06/29 18:04:46;;;;;;;;;;;;;;;;;;;;;
2022/06/29 18:07:23;;;;;;;1.73;1.10;;;25.90;69.90;;;;;;6216258;23;20145;-87
2022/06/29 18:09:56;;;;;;;1.20;1.10;;;25.90;70.60;;;;;;6217750;23;20379;-87
2022/06/29 18:12:24;;;;;;;2.55;1.08;;;25.90;71.20;;;;;;6169094;23;20453;-86
2022/06/29 18:15:18;;;;;;;2.03;1.10;;;25.80;71.20;;;;;;6191950;23;20039;-88
2022/06/29 18:17:51;;;;;;;1.52;1.20;;;25.80;71.40;;;;;;6192889;23;20004;-89
2022/06/29 18:20:22;;;;;;;1.10;1.00;;;25.70;71.60;;;;;;6235194;22;20008;-88
2022/06/29 18:22:57;;;;;;;;;;;25.70;72.00;;;;;;6217912;23;19992;-89
2022/06/29 18:25:41;;;;;;;1.58;1.10;;;25.70;72.10;;;;;;6242649;23;19904;-87
2022/06/29 18:28:14;;;;;;;1.35;1.25;;;25.60;72.40;;;;;;6242277;22;19988;-86
2022/06/29 18:30:50;;;;;;;2.05;1.15;;;25.50;72.50;;;;;;6217156;23;19992;-86
2022/06/29 18:33:24;;;;;;;1.95;1.25;;;25.50;72.40;;;;;;6232875;23;20001;-88
2022/06/29 18:35:52;;;;;;;1.98;1.10;;;25.50;72.50;;;;;;6214643;23;20082;-88
2022/06/29 18:38:39;;;;;;;1.40;1.30;;;25.40;72.80;;;;;;6214468;23;20079;-88
2022/06/29 18:41:04;;;;;;;2.22;1.30;;;25.40;73.30;;;;;;6215257;23;20009;-89
2022/06/29 18:43:30;;;;;;;2.17;1.48;;;25.30;73.50;;;;;;6215375;23;20435;-90
2022/06/29 18:45:56;;;;;;;2.17;1.30;;;25.30;73.90;;;;;;6189404;23;20418;-89
2022/06/29 18:48:22;;;;;;;3.10;1.33;;;25.20;74.30;;;;;;6214637;23;20004;-88
2022/06/29 18:50:47;;;;;;;1.35;1.20;;;25.20;74.70;;;;;;6214546;23;20008;-89
2022/06/29 18:53:16;;;;;;;1.92;1.23;;;25.10;74.90;;;;;;6190110;23;20032;-91
2022/06/29 18:55:44;;;;;;;2.75;1.30;;;25.10;75.20;;;;;;6215658;23;20009;-88
2022/06/29 18:58:10;;;;;;;3.30;1.40;;;25.00;75.40;;;;;;6216350;23;20001;-88
2022/06/29 19:00:36;;;;;;;1.90;1.70;;;25.00;75.70;;;;;;6191643;23;20008;-88
2022/06/29 19:03:03;;;;;;;1.83;1.40;;;24.90;75.90;;;;;;6216155;23;19997;-88
2022/06/29 19:05:29;;;;;;;1.73;1.27;;;24.90;76.10;;;;;;6215959;23;20054;-88
2022/06/29 19:07:55;;;;;;;2.00;1.40;;;24.90;76.30;;;;;;6215520;23;20459;-88
2022/06/29 19:10:23;;;;;;;2.17;1.50;;;24.80;76.60;;;;;;6216332;23;20041;-89
2022/06/29 19:12:52;;;;;;;3.15;1.48;;;24.80;76.80;;;;;;6216464;23;20067;-89
2022/06/29 19:15:18;;;;;;;2.05;1.45;;;24.70;77.10;;;;;;6167730;23;20009;-89
2022/06/29 19:17:44;;;;;;;2.38;1.40;;;24.70;77.30;;;;;;6216130;23;20151;-90
2022/06/29 19:20:13;;;;;;;1.73;1.20;;;24.60;77.40;;;;;;6216517;23;20001;-88
2022/06/29 19:22:39;;;;;;;2.50;1.35;;;24.50;77.70;;;;;;6218245;23;20004;-88
2022/06/29 19:25:05;;;;;;;1.90;1.42;;;24.50;78.00;;;;;;6191547;23;20004;-90
